Time;durP1;ratioP1;P1;durP2;ratioP2;P2;SDS_P1;SDS_P2;PMS_P1;PMS_P2;Temp;Humidity;BMP_temperature;BMP_pressure;BME280_temperature;BME280_humidity;BME280_pressure;Samples;Min_cycle;Max_cycle;Signal;HPM_P1;HPM_P2
2023/01/21 00:02:14;;;;;;;;;;;-1.30;99.90;;;-2.29;100.00;95833.09;10528959;28;2380;-71
2023/01/21 00:07:17;;;;;;;;;;;-1.30;99.90;;;-2.35;100.00;95833.88;10526952;28;2313;-71
2023/01/21 00:12:20;;;;;;;;;;;-1.30;99.90;;;-2.47;100.00;95842.28;10525523;28;2285;-71
2023/01/21 00:17:22;;;;;;;;;;;-1.30;99.90;;;-2.39;100.00;95833.44;10525723;28;2366;-70
2023/01/21 00:22:25;;;;;;;;;;;-1.40;99.90;;;-2.39;100.00;95833.44;10526086;28;2354;-71
2023/01/21 00:27:28;;;;;;;;;;;-1.40;99.90;;;-2.37;100.00;95826.16;10508760;28;2504;-72
2023/01/21 00:32:30;;;;;;;;;;;-1.20;99.90;;;-2.39;100.00;95832.63;10529882;28;2315;-72
2023/01/21 00:37:33;;;;;;;;;;;-1.30;99.90;;;-2.37;100.00;95839.31;10525630;28;2342;-71
2023/01/21 00:42:36;;;;;;;;;;;-1.30;99.90;;;-2.53;100.00;95835.16;10522031;28;2457;-71
2023/01/21 00:47:39;;;;;;;;;;;-1.30;99.90;;;-2.44;100.00;95838.44;10524802;28;2358;-71
2023/01/21 00:52:41;;;;;;;;;;;-1.40;99.90;;;-2.68;100.00;95844.13;10523062;28;2376;-72
2023/01/21 00:57:44;;;;;;;;;;;-1.50;99.90;;;-2.62;100.00;95848.63;10525667;28;2477;-71
2023/01/21 01:02:47;;;;;;;;;;;-1.60;99.90;;;-2.59;100.00;95854.34;10530087;28;2317;-72
2023/01/21 01:07:50;;;;;;;;;;;-1.50;99.90;;;-2.64;100.00;95855.91;10526651;28;2448;-71
2023/01/21 01:12:52;;;;;;;;;;;-1.50;99.90;;;-2.56;100.00;95858.41;10525181;28;2308;-71
2023/01/21 01:17:55;;;;;;;;;;;-1.50;99.90;;;-2.76;100.00;95863.47;10527525;28;2630;-70
2023/01/21 01:22:58;;;;;;;;;;;-1.60;99.90;;;-2.56;100.00;95858.41;10524135;28;2319;-70
2023/01/21 01:28:01;;;;;;;;;;;-1.50;99.90;;;-2.49;100.00;95862.69;10528028;28;2437;-74
2023/01/21 01:33:03;;;;;;;;;;;-1.40;99.90;;;-2.40;100.00;95863.41;10525226;28;2339;-75
2023/01/21 01:38:08;;;;;;;;;;;-1.40;99.90;;;-2.57;100.00;95864.66;10523981;28;2330;-73
2023/01/21 01:43:11;;;;;;;;;;;-1.50;99.90;;;-2.51;100.00;95853.38;10523708;28;2336;-71
2023/01/21 01:48:15;;;;;;;;;;;-1.50;99.90;;;-2.67;100.00;95861.53;10529746;28;2465;-71
2023/01/21 01:53:18;;;;;;;;;;;-1.60;99.90;;;-2.80;100.00;95868.31;10527820;28;2384;-71
2023/01/21 01:58:21;;;;;;;;;;;-1.60;99.90;;;-2.83;100.00;95867.88;10528066;28;2333;-70
2023/01/21 02:08:44;;;;;;;;;;;-1.70;99.90;;;-2.92;100.00;95869.00;10520763;28;2296;-71
2023/01/21 02:13:47;;;;;;;;;;;-1.80;99.90;;;-2.88;100.00;95871.06;10523874;28;2655;-72
2023/01/21 02:18:50;;;;;;;;;;;-1.60;99.90;;;-2.90;100.00;95877.53;10524501;28;2252;-71
2023/01/21 02:23:53;;;;;;;;;;;-1.80;99.90;;;-2.87;100.00;95867.41;10519318;28;2433;-70
2023/01/21 02:28:55;;;;;;;;;;;-1.80;99.90;;;-2.80;100.00;95872.75;10521019;28;2353;-72
2023/01/21 02:33:58;;;;;;;;;;;-1.80;99.90;;;-2.80;100.00;95873.59;10518970;28;2245;-71
2023/01/21 02:39:01;;;;;;;;;;;-1.80;99.90;;;-2.86;100.00;95876.13;10520409;28;2383;-71
2023/01/21 02:44:03;;;;;;;;;;;-1.70;99.90;;;-2.92;100.00;95869.00;10523110;28;2342;-71
2023/01/21 02:49:06;;;;;;;;;;;-1.80;99.90;;;-2.92;100.00;95876.91;10523656;28;2369;-71
2023/01/21 02:54:09;;;;;;;;;;;-1.80;99.90;;;-3.01;100.00;95870.94;10527900;28;2353;-71
2023/01/21 02:59:11;;;;;;;;;;;-1.80;99.90;;;-2.91;100.00;95876.72;10529159;28;2214;-70
2023/01/21 03:04:14;;;;;;;;;;;-1.90;99.90;;;-2.83;100.00;95863.44;10522706;28;2416;-71
2023/01/21 03:09:17;;;;;;;;;;;-1.80;99.90;;;-2.70;100.00;95875.06;10522384;28;2319;-71
2023/01/21 03:19:40;;;;;;;;;;;-1.80;99.90;;;-2.91;100.00;95870.63;10520962;28;2339;-71
2023/01/21 03:24:42;;;;;;;;;;;-1.80;99.90;;;-2.96;100.00;95862.47;10525066;28;2337;-71
2023/01/21 03:29:45;;;;;;;;;;;-1.80;99.90;;;-2.92;100.00;95869.00;10502504;28;2593;-71
2023/01/21 03:34:48;;;;;;;;;;;-1.90;99.90;;;-2.96;100.00;95862.47;10520270;28;2343;-71
2023/01/21 03:39:50;;;;;;;;;;;-2.00;99.90;;;-2.85;100.00;95860.19;10524607;28;2355;-70
2023/01/21 03:44:53;;;;;;;;;;;-1.90;99.90;;;-2.78;100.00;95855.78;10522392;28;2282;-71
2023/01/21 03:49:56;;;;;;;;;;;-1.80;99.90;;;-2.85;100.00;95854.91;10517725;28;2720;-73
2023/01/21 03:54:59;;;;;;;;;;;-1.80;99.90;;;-2.72;100.00;95855.03;10522597;28;2329;-72
2023/01/21 04:00:01;;;;;;;;;;;-1.70;99.90;;;-2.73;100.00;95853.41;10518933;28;2272;-71
2023/01/21 04:05:04;;;;;;;;;;;-1.70;99.90;;;-2.83;100.00;95852.09;10513451;28;2297;-72
2023/01/21 04:10:07;;;;;;;;;;;-1.70;99.90;;;-2.72;100.00;95855.03;10518757;28;2279;-69
2023/01/21 04:15:09;;;;;;;;;;;-1.70;99.90;;;-2.96;100.00;95850.16;10534455;28;2353;-71
2023/01/21 04:20:12;;;;;;;;;;;-1.80;99.90;;;-2.98;100.00;95860.06;10514217;28;2361;-70
2023/01/21 04:25:16;;;;;;;;;;;-1.80;99.90;;;-2.86;100.00;95861.19;10530868;28;2436;-71
2023/01/21 04:30:19;;;;;;;;;;;-1.80;99.90;;;-2.91;100.00;95866.19;10532299;28;2414;-70
2023/01/21 04:35:22;;;;;;;;;;;-1.80;99.90;;;-2.89;100.00;95868.63;10534565;28;2287;-71
2023/01/21 04:40:25;;;;;;;;;;;-1.80;99.90;;;-2.76;100.00;95866.94;10529059;28;2336;-69
2023/01/21 04:45:27;;;;;;;;;;;-1.80;99.90;;;-2.69;100.00;95871.44;10530459;28;2267;-70
2023/01/21 04:50:30;;;;;;;;;;;-1.70;99.90;;;-2.74;100.00;95875.44;10528216;28;2340;-71
2023/01/21 04:55:33;;;;;;;;;;;-1.60;99.90;;;-2.71;100.00;95871.63;10525895;28;2357;-71
2023/01/21 05:00:36;;;;;;;;;;;-1.70;99.90;;;-2.92;100.00;95880.34;10532029;28;2286;-71
2023/01/21 05:05:38;;;;;;;;;;;-1.70;99.90;;;-3.09;100.00;95878.94;10526828;28;2513;-73
2023/01/21 05:10:41;;;;;;;;;;;-1.90;99.90;;;-3.10;100.00;95879.94;10522388;28;2328;-74
2023/01/21 05:15:44;;;;;;;;;;;-2.00;99.90;;;-3.13;100.00;95875.84;10522029;28;2430;-70
2023/01/21 05:20:46;;;;;;;;;;;-2.00;99.90;;;-3.11;100.00;95873.06;10517024;28;2307;-71
2023/01/21 05:25:50;;;;;;;;;;;;;;;-3.10;100.00;95866.81;10526402;28;2735;-70
2023/01/21 05:30:52;;;;;;;;;;;-2.00;99.90;;;-3.20;100.00;95864.44;10520159;28;2320;-71
2023/01/21 05:35:55;;;;;;;;;;;-2.10;99.90;;;-3.29;100.00;95865.56;10522501;28;2367;-71
2023/01/21 05:40:58;;;;;;;;;;;-2.10;99.90;;;-3.39;100.00;95878.19;10523480;28;2292;-71
2023/01/21 05:46:01;;;;;;;;;;;-2.20;99.90;;;-3.41;100.00;95881.00;10520887;28;2351;-72
2023/01/21 05:51:04;;;;;;;;;;;-2.20;99.90;;;-3.45;100.00;95890.25;10523618;28;2280;-70
2023/01/21 05:56:07;;;;;;;;;;;-2.10;99.90;;;-3.55;100.00;95895.00;10526829;28;2333;-71
2023/01/21 06:01:09;;;;;;;;;;;-2.40;99.90;;;-3.58;100.00;95895.34;10520528;28;2304;-72
2023/01/21 06:06:12;;;;;;;;;;;-2.50;99.90;;;-3.58;100.00;95895.34;10518030;28;2283;-74
2023/01/21 06:11:15;;;;;;;;;;;-2.50;99.90;;;-3.53;100.00;95888.53;10522798;28;2359;-72
2023/01/21 06:16:17;;;;;;;;;;;-2.40;99.90;;;-3.51;100.00;95896.22;10525651;28;2287;-72
2023/01/21 06:21:20;;;;;;;;;;;-2.20;99.90;;;-3.48;100.00;95901.13;10519765;28;2401;-72
2023/01/21 06:26:23;;;;;;;;;;;-2.40;99.90;;;-3.50;100.00;95903.13;10528706;28;2275;-71
2023/01/21 06:31:28;;;;;;;;;;;-2.40;99.90;;;-3.51;100.00;95900.69;10519240;28;2347;-72
2023/01/21 06:36:31;;;;;;;;;;;-2.40;99.90;;;-3.64;100.00;95906.56;10517932;28;2398;-71
2023/01/21 06:41:34;;;;;;;;;;;-2.50;99.90;;;-3.81;100.00;95916.47;10526345;28;2247;-71
2023/01/21 06:46:36;;;;;;;;;;;-2.60;99.90;;;-3.69;100.00;95916.81;10517560;28;2442;-70
2023/01/21 06:51:45;;;;;;;;;;;-2.70;99.90;;;-3.56;100.00;95909.13;10520309;28;2273;-70
2023/01/21 06:56:47;;;;;;;;;;;-4.00;99.90;;;-3.65;100.00;95915.47;10518665;28;2320;-72
2023/01/21 07:01:50;;;;;;;;;;;-2.50;99.90;;;-3.60;100.00;95919.19;10535189;28;2174;-71
2023/01/21 07:06:54;;;;;;;;;;;-2.60;99.90;;;-3.74;100.00;95922.63;10503714;28;2892;-71
2023/01/21 07:11:57;;;;;;;;;;;-2.60;99.90;;;-3.60;100.00;95924.44;10521770;28;2460;-70
2023/01/21 07:17:00;;;;;;;;;;;-2.50;99.90;;;-3.53;100.00;95924.50;10525083;28;2335;-72
2023/01/21 07:22:03;;;;;;;;;;;-2.50;99.90;;;-3.45;100.00;95924.41;10521158;28;2353;-71
2023/01/21 07:27:05;;;;;;;;;;;-2.50;99.90;;;-3.38;100.00;95937.63;10524647;28;2324;-73
2023/01/21 07:32:08;;;;;;;;;;;-2.40;99.90;;;-3.54;100.00;95938.66;10522679;28;2449;-72
2023/01/21 07:37:11;;;;;;;;;;;-2.30;99.90;;;-3.40;100.00;95937.81;10518756;28;2350;-73
2023/01/21 07:42:14;;;;;;;;;;;-2.40;99.90;;;-3.39;100.00;95946.53;10517327;28;2370;-71
2023/01/21 07:47:16;;;;;;;;;;;-2.40;99.90;;;-3.51;100.00;95953.22;10527492;28;2325;-71
2023/01/21 07:52:19;;;;;;;;;;;-2.40;99.90;;;-3.63;100.00;95950.22;10521156;28;2250;-71
2023/01/21 07:57:22;;;;;;;;;;;-2.50;99.90;;;-3.37;100.00;95949.78;10530092;28;2303;-71
2023/01/21 08:02:24;;;;;;;;;;;-2.30;99.90;;;-3.15;100.00;95948.03;10531015;28;2493;-70
2023/01/21 08:07:27;;;;;;;;;;;-2.30;99.90;;;-3.12;100.00;95948.47;10531911;28;2246;-72
2023/01/21 08:12:30;;;;;;;;;;;-2.20;99.90;;;-3.19;100.00;95952.03;10524153;28;2334;-72
2023/01/21 08:17:33;;;;;;;;;;;-2.20;99.90;;;-3.19;100.00;95944.94;10527558;28;2316;-70
2023/01/21 08:22:35;;;;;;;;;;;-2.20;99.90;;;-3.20;100.00;95948.59;10527052;28;2316;-71
2023/01/21 08:27:38;;;;;;;;;;;-2.20;99.90;;;-3.33;100.00;95946.59;10524274;28;2380;-71
2023/01/21 08:32:40;;;;;;;;;;;-2.30;99.90;;;-3.22;100.00;95944.53;10531639;28;2335;-69
2023/01/21 08:37:43;;;;;;;;;;;-2.30;99.90;;;-3.39;100.00;95941.28;10522889;28;2317;-69
2023/01/21 08:42:46;;;;;;;;;;;-2.20;99.90;;;-3.44;100.00;95962.00;10528476;28;2785;-72
2023/01/21 08:47:48;;;;;;;;;;;-1.60;99.90;;;-3.29;100.00;95958.41;10525490;28;2287;-74
2023/01/21 08:52:52;;;;;;;;;;;-2.40;99.90;;;-3.13;100.00;95961.81;10522001;28;2302;-70
2023/01/21 08:57:54;;;;;;;;;;;-1.70;99.90;;;-3.08;100.00;95965.53;10537586;28;2316;-71
2023/01/21 09:02:57;;;;;;;;;;;-2.90;99.90;;;-2.83;100.00;95968.66;10523805;28;2334;-72
2023/01/21 09:08:00;;;;;;;;;;;-2.00;99.90;;;-2.77;100.00;95962.66;10524775;28;2344;-73
2023/01/21 09:13:03;;;;;;;;;;;-1.80;99.90;;;-2.70;100.00;95962.72;10524332;28;2489;-75
2023/01/21 09:18:05;;;;;;;;;;;-1.70;99.90;;;-2.81;100.00;95973.72;10527815;28;2473;-73
2023/01/21 09:23:22;;;;;;;;;;;-1.70;99.90;;;-2.56;100.00;95963.66;10525571;28;2287;-70
2023/01/21 09:28:26;;;;;;;;;;;-1.60;99.90;;;-2.34;100.00;95960.06;10526711;28;2310;-74
2023/01/21 09:33:28;;;;;;;;;;;-1.50;99.90;;;-1.98;100.00;95956.50;10528371;28;2297;-73
2023/01/21 09:38:31;;;;;;;;;;;-1.30;99.90;;;-1.96;100.00;95955.31;10522533;28;2340;-74
2023/01/21 09:43:34;;;;;;;;;;;-1.10;99.90;;;-1.90;100.00;95953.75;10524891;28;2360;-70
2023/01/21 09:48:36;;;;;;;;;;;-1.00;99.90;;;-1.89;100.00;95958.00;10521934;28;2333;-68
2023/01/21 09:53:39;;;;;;;;;;;-0.90;99.90;;;-1.79;100.00;95955.81;10523525;28;2323;-74
2023/01/21 09:58:42;;;;;;;;;;;-0.90;99.90;;;-1.97;100.00;95960.78;10523847;28;2420;-72
2023/01/21 10:03:45;;;;;;;;;;;-1.10;99.90;;;-1.93;100.00;95960.19;10531445;28;2357;-67
2023/01/21 10:08:47;;;;;;;;;;;-1.00;99.90;;;-1.96;100.00;95959.78;10524763;28;2414;-69
2023/01/21 10:13:50;;;;;;;;;;;-1.00;99.90;;;-2.04;100.00;95957.25;10529337;28;2341;-70
2023/01/21 10:18:53;;;;;;;;;;;-1.00;99.90;;;-1.99;100.00;95952.22;10515452;28;2338;-73
2023/01/21 10:23:56;;;;;;;;;;;-1.10;99.90;;;-2.05;100.00;95955.63;10523510;28;2306;-72
2023/01/21 10:28:59;;;;;;;;;;;-1.00;99.90;;;-2.20;100.00;95961.00;10501930;28;2264;-70
2023/01/21 10:34:01;;;;;;;;;;;-1.20;99.90;;;-2.36;100.00;95955.97;10526421;28;2331;-70
2023/01/21 10:39:04;;;;;;;;;;;-1.20;99.90;;;-2.45;100.00;95969.25;10523125;28;2453;-71
2023/01/21 10:44:07;;;;;;;;;;;-1.40;99.90;;;-2.48;100.00;95972.28;10512120;28;2337;-70
2023/01/21 10:49:10;;;;;;;;;;;-1.40;99.90;;;-2.50;100.00;95962.91;10520482;28;2356;-70
2023/01/21 10:54:12;;;;;;;;;;;-1.40;99.90;;;-2.51;100.00;95958.66;10523681;28;2322;-71
2023/01/21 10:59:15;;;;;;;;;;;-1.50;99.90;;;-2.23;100.00;95950.81;10518167;28;2346;-69
2023/01/21 11:04:17;;;;;;;;;;;-1.30;99.90;;;-2.08;100.00;95945.50;10518651;28;2310;-68
2023/01/21 11:09:20;;;;;;;;;;;-1.10;99.90;;;-1.93;100.00;95936.47;10521344;28;2315;-69
2023/01/21 11:14:23;;;;;;;;;;;-1.00;99.90;;;-1.59;100.00;95934.06;10530574;28;2232;-69
2023/01/21 11:19:26;;;;;;;;;;;-0.80;99.90;;;-1.91;100.00;95937.13;10516646;28;2338;-72
2023/01/21 11:24:30;;;;;;;;;;;-0.70;99.90;;;-2.11;100.00;95930.88;10518462;28;2340;-70
2023/01/21 11:29:33;;;;;;;;;;;-0.90;99.90;;;-1.97;100.00;95937.88;10514827;28;2374;-74
2023/01/21 11:34:36;;;;;;;;;;;-1.00;99.90;;;-1.95;100.00;95932.41;10534200;28;2358;-78
2023/01/21 11:39:38;;;;;;;;;;;-1.00;99.90;;;-2.14;100.00;95925.19;10534830;28;2365;-71
2023/01/21 11:44:41;;;;;;;;;;;-0.90;99.90;;;-1.91;100.00;95920.47;10528653;28;2626;-69
2023/01/21 11:49:44;;;;;;;;;;;-0.90;99.90;;;-1.77;100.00;95916.94;10523368;28;2614;-71
2023/01/21 11:54:47;;;;;;;;;;;-0.80;99.90;;;-1.66;100.00;95912.94;10527560;28;2704;-69
2023/01/21 11:59:49;;;;;;;;;;;-0.70;99.90;;;-1.70;100.00;95912.53;10528044;28;2677;-69
2023/01/21 12:04:52;;;;;;;;;;;-0.50;99.90;;;-1.78;100.00;95914.47;10531797;28;2752;-68
2023/01/21 12:09:55;;;;;;;;;;;-0.50;99.90;;;-1.61;100.00;95904.44;10529355;28;2621;-69
2023/01/21 12:14:57;;;;;;;;;;;-0.60;99.90;;;-1.51;100.00;95904.94;10536413;28;2697;-72
2023/01/21 12:20:00;;;;;;;;;;;-0.40;99.90;;;-1.78;100.00;95896.88;10530133;28;2731;-73
2023/01/21 12:25:02;;;;;;;;;;;-0.70;99.90;;;-1.63;100.00;95892.28;10528707;28;2619;-73
2023/01/21 12:30:05;;;;;;;;;;;-0.60;99.90;;;-1.80;100.00;95884.88;10525011;28;2582;-69
2023/01/21 12:35:08;;;;;;;;;;;-0.60;99.90;;;-1.70;100.00;95891.44;10530062;28;2718;-69
2023/01/21 12:40:11;;;;;;;;;;;-0.70;99.90;;;-1.67;100.00;95891.03;10519208;28;2742;-70
2023/01/21 12:45:14;;;;;;;;;;;-0.70;99.90;;;-1.53;100.00;95891.09;10529872;28;2638;-70
2023/01/21 12:50:17;;;;;;;;;;;-0.60;99.90;;;-1.78;100.00;95888.97;10521012;28;2562;-75
2023/01/21 12:55:20;;;;;;;;;;;-0.60;99.90;;;-1.69;100.00;95887.78;10527219;28;2580;-74
2023/01/21 13:00:23;;;;;;;;;;;-0.40;99.90;;;-1.68;100.00;95892.06;10531591;28;2844;-78
2023/01/21 13:05:26;;;;;;;;;;;-0.70;99.90;;;-1.62;100.00;95893.09;10528445;28;2681;-71
2023/01/21 13:10:28;;;;;;;;;;;-0.60;99.90;;;-1.52;100.00;95895.41;10518717;28;2645;-72
2023/01/21 13:15:31;;;;;;;;;;;-0.50;99.90;;;-1.51;100.00;95902.28;10519968;28;2630;-74
2023/01/21 13:20:34;;;;;;;;;;;-0.50;99.90;;;-1.60;100.00;95903.44;10520453;28;3006;-73
2023/01/21 13:25:36;;;;;;;;;;;-0.50;99.90;;;-1.60;100.00;95901.63;10517231;28;2620;-72
2023/01/21 13:30:39;;;;;;;;;;;-0.60;99.90;;;-1.88;100.00;95909.56;10525202;28;2635;-75
2023/01/21 13:35:42;;;;;;;;;;;-0.60;99.90;;;-1.81;100.00;95914.88;10524058;28;2626;-75
2023/01/21 13:40:45;;;;;;;;;;;-0.70;99.90;;;-1.51;100.00;95910.19;10520960;28;2629;-74
2023/01/21 13:45:48;;;;;;;;;;;-0.60;99.90;;;-1.55;100.00;95915.03;10530389;28;2614;-71
2023/01/21 13:50:51;;;;;;;;;;;-0.50;99.90;;;-1.83;100.00;95920.34;10516182;28;2626;-73
2023/01/21 13:55:53;;;;;;;;;;;-0.70;99.90;;;-1.91;100.00;95925.75;10510897;28;2670;-74
2023/01/21 14:00:56;;;;;;;;;;;-0.70;99.90;;;-1.43;100.00;95924.03;10499973;28;2614;-75
2023/01/21 14:05:59;;;;;;;;;;;-0.60;99.90;;;-1.58;100.00;95925.97;10516017;28;2598;-75
2023/01/21 14:11:02;;;;;;;;;;;-0.30;99.90;;;-1.71;100.00;95926.72;10513300;28;2601;-75
2023/01/21 14:16:05;;;;;;;;;;;-0.70;99.90;;;-1.77;100.00;95935.38;10522652;28;2575;-75
2023/01/21 14:21:08;;;;;;;;;;;-0.70;99.90;;;-1.92;100.00;95942.56;10523452;28;2616;-74
2023/01/21 14:26:11;;;;;;;;;;;-0.70;99.90;;;-1.92;100.00;95937.28;10519223;28;2569;-73
2023/01/21 14:31:13;;;;;;;;;;;-0.90;99.90;;;-1.86;100.00;95941.78;10515217;28;2631;-77
2023/01/21 14:36:16;;;;;;;;;;;-0.80;99.90;;;-2.03;100.00;95945.75;10526555;28;2658;-74
2023/01/21 14:41:19;;;;;;;;;;;-0.80;99.90;;;-1.97;100.00;95945.78;10521050;28;2636;-74
2023/01/21 14:46:22;;;;;;;;;;;-0.90;99.90;;;-1.97;100.00;95951.06;10521563;28;2592;-74
2023/01/21 14:51:24;;;;;;;;;;;-0.90;99.90;;;-1.98;100.00;95953.84;10514491;28;2633;-73
2023/01/21 14:56:27;;;;;;;;;;;-1.00;99.90;;;-1.99;100.00;95960.13;10519891;28;2599;-75
2023/01/21 15:01:30;;;;;;;;;;;-1.00;99.90;;;-1.90;100.00;95959.00;10519968;28;2579;-74
2023/01/21 15:06:33;;;;;;;;;;;-1.00;99.90;;;-2.09;100.00;95954.41;10520915;28;2567;-74
2023/01/21 15:11:36;;;;;;;;;;;-1.00;99.90;;;-2.14;100.00;95967.31;10522182;28;2722;-74
2023/01/21 15:16:38;;;;;;;;;;;-1.10;99.90;;;-2.14;100.00;95968.13;10520797;28;2827;-75
2023/01/21 15:21:42;;;;;;;;;;;-1.10;99.90;;;-2.24;100.00;95960.53;10525367;28;2610;-75
2023/01/21 15:26:44;;;;;;;;;;;-1.10;99.90;;;-2.28;100.00;95967.19;10515173;28;2624;-74
2023/01/21 15:31:47;;;;;;;;;;;-1.20;99.90;;;-2.40;100.00;95973.97;10525826;28;2632;-75
2023/01/21 15:36:55;;;;;;;;;;;-1.20;99.90;;;-2.31;100.00;95972.81;10519708;28;2545;-74
2023/01/21 15:41:58;;;;;;;;;;;-1.20;99.90;;;-2.18;100.00;95970.31;10517137;28;2645;-75
2023/01/21 15:47:01;;;;;;;;;;;-1.20;99.90;;;-2.08;100.00;95979.72;10521990;28;2610;-74
2023/01/21 15:52:03;;;;;;;;;;;-1.10;99.90;;;-2.25;100.00;95977.34;10521923;28;2653;-76
2023/01/21 15:57:06;;;;;;;;;;;-1.20;99.90;;;-2.36;100.00;95980.47;10514094;28;2685;-76
2023/01/21 16:02:09;;;;;;;;;;;-1.20;99.90;;;-2.29;100.00;95985.81;10520469;28;2632;-73
2023/01/21 16:07:12;;;;;;;;;;;-1.30;99.90;;;-2.46;100.00;95996.59;10518704;28;2557;-73
2023/01/21 16:12:14;;;;;;;;;;;-1.30;99.90;;;-2.42;100.00;95991.75;10499524;28;2665;-72
2023/01/21 16:17:17;;;;;;;;;;;-1.40;99.90;;;-2.44;100.00;95996.41;10504691;28;2740;-73
2023/01/21 16:22:20;;;;;;;;;;;-1.40;99.90;;;-2.35;100.00;96000.56;10526252;28;2648;-73
2023/01/21 16:27:22;;;;;;;;;;;-1.40;99.90;;;-2.48;100.00;96013.59;10531311;28;2604;-73
2023/01/21 16:32:25;;;;;;;;;;;-1.40;99.90;;;-2.58;100.00;96005.16;10526589;28;2569;-73
2023/01/21 16:37:28;;;;;;;;;;;-1.40;99.90;;;-2.65;100.00;96014.81;10530124;28;2669;-74
2023/01/21 16:42:31;;;;;;;;;;;-1.50;99.90;;;-2.67;100.00;96006.25;10522360;28;2760;-73
2023/01/21 16:47:34;;;;;;;;;;;-1.60;99.90;;;-2.54;100.00;96014.34;10522624;28;2587;-72
2023/01/21 16:52:37;;;;;;;;;;;-1.60;99.90;;;-2.69;100.00;96006.44;10512826;28;2591;-72
2023/01/21 16:57:40;;;;;;;;;;;-1.60;99.90;;;-2.79;100.00;96022.53;10516285;28;2557;-74
2023/01/21 17:02:42;;;;;;;;;;;-1.60;99.90;;;-2.74;100.00;96020.16;10532705;28;2629;-74
2023/01/21 17:07:45;;;;;;;;;;;-1.60;99.90;;;-2.63;100.00;96024.13;10529745;28;2600;-73
2023/01/21 17:12:48;;;;;;;;;;;;;;;-2.85;100.00;96027.72;10530723;28;2574;-77
2023/01/21 17:17:51;;;;;;;;;;;;;;;-2.71;100.00;96040.03;10532070;28;2895;-72
2023/01/21 17:22:54;;;;;;;;;;;;;;;-2.62;100.00;96038.09;10501922;28;2717;-71
2023/01/21 17:27:58;;;;;;;;;;;;;;;-2.74;100.00;96046.47;10533871;28;2600;-73
2023/01/21 17:33:01;;;;;;;;;;;;;;;-2.78;100.00;96039.16;10534563;28;2533;-73
2023/01/21 17:38:04;;;;;;;;;;;;;;;-2.78;100.00;96047.84;10527736;28;2755;-72
2023/01/21 17:43:07;;;;;;;;;;;;;;;-2.65;100.00;96043.75;10523147;28;2590;-72
2023/01/21 17:48:10;;;;;;;;;;;;;;;-2.76;100.00;96048.47;10533617;28;2605;-70
2023/01/21 17:53:16;;;;;;;;;;;;;;;-2.83;100.00;96052.84;10528544;28;2618;-72
2023/01/21 17:58:20;;;;;;;;;;;;;;;-2.78;100.00;96054.94;10526432;28;2679;-71
2023/01/21 18:03:23;;;;;;;;;;;;;;;-2.92;100.00;96064.47;10511823;28;2694;-74
2023/01/21 18:08:26;;;;;;;;;;;;;;;-2.85;100.00;96060.09;10526598;28;2663;-69
2023/01/21 18:13:29;;;;;;;;;;;;;;;-2.81;100.00;96064.00;10503323;28;2642;-72
2023/01/21 18:18:33;;;;;;;;;;;;;;;-3.01;100.00;96055.03;10522687;28;2684;-72
2023/01/21 18:23:36;;;;;;;;;;;;;;;-2.83;100.00;96065.19;10518944;28;2613;-70
2023/01/21 18:28:40;;;;;;;;;;;;;;;-2.75;100.00;96060.63;10522078;28;2646;-70
2023/01/21 18:33:43;;;;;;;;;;;;;;;-2.88;100.00;96064.91;10524448;28;2942;-71
2023/01/21 18:38:47;;;;;;;;;;;;;;;-2.81;100.00;96069.25;10529799;28;2620;-70
2023/01/21 18:43:50;;;;;;;;;;;;;;;-3.01;100.00;96076.88;10519776;28;2657;-69
2023/01/21 18:48:53;;;;;;;;;;;;;;;-3.03;100.00;96078.06;10523064;28;2616;-70
2023/01/21 18:53:57;;;;;;;;;;;;;;;-3.02;100.00;96080.50;10522631;28;2905;-71
2023/01/21 18:59:00;;;;;;;;;;;;;;;-3.17;100.00;96077.06;10521061;28;2565;-72
2023/01/21 19:04:04;;;;;;;;;;;;;;;-3.21;100.00;96080.25;10523187;28;2694;-71
2023/01/21 19:09:07;;;;;;;;;;;;;;;-3.06;100.00;96081.88;10519623;28;2670;-71
2023/01/21 19:14:11;;;;;;;;;;;;;;;-2.95;100.00;96077.97;10514602;28;2680;-70
2023/01/21 19:19:14;;;;;;;;;;;;;;;-3.00;100.00;96082.97;10511005;28;2600;-73
2023/01/21 19:24:17;;;;;;;;;;;;;;;-2.96;100.00;96078.97;10521603;28;2609;-72
2023/01/21 19:29:25;;;;;;;;;;;;;;;-3.08;100.00;96080.44;10513788;28;2710;-69
2023/01/21 19:34:28;;;;;;;;;;;;;;;-2.96;100.00;96078.97;10526055;28;2664;-70
2023/01/21 19:39:33;;;;;;;;;;;;;;;-3.14;100.00;96083.78;10526703;28;2735;-73
2023/01/21 19:44:38;;;;;;;;;;;;;;;-3.27;100.00;96079.13;10520799;28;2564;-73
2023/01/21 19:49:41;;;;;;;;;;;;;;;-3.18;100.00;96080.72;10522534;28;2606;-69
2023/01/21 19:54:44;;;;;;;;;;;;;;;-2.94;100.00;96089.31;10524980;28;2632;-74
2023/01/21 19:59:48;;;;;;;;;;;;;;;-2.91;100.00;96089.78;10529190;28;2571;-71
2023/01/21 20:04:51;;;;;;;;;;;;;;;-3.09;100.00;96090.13;10527660;28;2576;-73
2023/01/21 20:09:54;;;;;;;;;;;;;;;-2.96;100.00;96096.56;10528242;28;2637;-73
2023/01/21 20:14:58;;;;;;;;;;;;;;;-2.99;100.00;96095.09;10533082;28;2689;-71
2023/01/21 20:20:01;;;;;;;;;;;;;;;-2.86;100.00;96102.38;10524510;28;2591;-69
2023/01/21 20:25:05;;;;;;;;;;;;;;;-2.86;100.00;96095.31;10530411;28;2691;-71
2023/01/21 20:30:08;;;;;;;;;;;;;;;-2.93;100.00;96102.28;10526597;28;2773;-70
2023/01/21 20:35:18;;;;;;;;;;;;;;;-2.87;100.00;96109.44;10538421;28;2688;-71
2023/01/21 20:40:21;;;;;;;;;;;;;;;-2.97;100.00;96105.47;10526704;28;2533;-71
2023/01/21 20:45:24;;;;;;;;;;;;;;;-2.85;100.00;96099.56;10531553;28;2685;-75
2023/01/21 20:50:30;;;;;;;;;;;;;;;-2.95;100.00;96099.00;10530676;28;2725;-72
2023/01/21 20:55:33;;;;;;;;;;;;;;;-2.88;100.00;96094.66;10534117;28;2725;-71
2023/01/21 21:00:36;;;;;;;;;;;;;;;-2.78;100.00;96089.13;10535303;28;2598;-70
2023/01/21 21:05:39;;;;;;;;;;;;;;;-2.78;100.00;96100.47;10529898;28;2700;-71
2023/01/21 21:10:43;;;;;;;;;;;;;;;-2.69;100.00;96100.38;10530056;28;2624;-71
2023/01/21 21:15:46;;;;;;;;;;;;;;;-2.84;100.00;96092.50;10533099;28;2590;-70
2023/01/21 21:20:49;;;;;;;;;;;;;;;-2.89;100.00;96090.41;10530746;28;2646;-72
2023/01/21 21:25:54;;;;;;;;;;;;;;;-2.85;100.00;96091.69;10532645;28;2740;-71
2023/01/21 21:30:57;;;;;;;;;;;;;;;-2.98;100.00;96099.41;10529843;28;2641;-72
2023/01/21 21:36:00;;;;;;;;;;;;;;;-2.82;100.00;96095.75;10533564;28;2721;-70
2023/01/21 21:43:30;;;;;;;;;;;;;;;-2.80;100.00;96099.84;10522295;28;2621;-71
2023/01/21 21:51:48;;;;;;;;;;;;;;;-2.69;100.00;96095.09;10528010;28;2608;-74
2023/01/21 21:56:51;;;;;;;;;;;;;;;-2.72;100.00;96093.66;10530710;28;2661;-71
2023/01/21 22:01:54;;;;;;;;;;;;;;;-2.63;100.00;96094.38;10528334;28;2711;-70
2023/01/21 22:06:57;;;;;;;;;;;;;;;-2.86;100.00;96095.31;10527889;28;2672;-71
2023/01/21 22:12:01;;;;;;;;;;;;;;;-2.85;100.00;96096.13;10529255;28;2574;-71
2023/01/21 22:17:04;;;;;;;;;;;;;;;-2.63;100.00;96091.75;10529200;28;2626;-73
2023/01/21 22:22:07;;;;;;;;;;;;;;;-2.76;100.00;96090.56;10529623;28;2612;-71
2023/01/21 22:27:11;;;;;;;;;;;;;;;-2.66;100.00;96078.97;10529983;28;2602;-70
2023/01/21 22:32:15;;;;;;;;;;;;;;;-2.79;100.00;96085.69;10517372;28;2593;-71
2023/01/21 22:37:19;;;;;;;;;;;;;;;-2.68;100.00;96087.03;10522299;28;2633;-69
2023/01/21 22:42:22;;;;;;;;;;;;;;;-2.75;100.00;96092.19;10521744;28;2632;-71
2023/01/21 22:47:27;;;;;;;;;;;;;;;-2.73;100.00;96082.31;10522404;28;2622;-69
2023/01/21 22:52:30;;;;;;;;;;;;;;;-2.72;100.00;96085.78;10515220;28;2693;-73
2023/01/21 22:57:33;;;;;;;;;;;;;;;-2.75;100.00;96086.94;10526093;28;2599;-69
2023/01/21 23:02:37;;;;;;;;;;;;;;;-2.69;100.00;96076.69;10527990;28;2580;-75
2023/01/21 23:07:40;;;;;;;;;;;;;;;-2.78;100.00;96092.59;10521511;28;2557;-74
2023/01/21 23:12:43;;;;;;;;;;;;;;;-2.67;100.00;96080.78;10525407;28;2639;-70
2023/01/21 23:17:46;;;;;;;;;;;;;;;-2.57;100.00;96078.66;10518623;28;2676;-73
2023/01/21 23:22:50;;;;;;;;;;;;;;;-2.65;100.00;96083.22;10527416;28;2589;-76
2023/01/21 23:27:53;;;;;;;;;;;;;;;-2.68;100.00;96088.84;10522073;28;2705;-70
2023/01/21 23:32:56;;;;;;;;;;;;;;;-2.66;100.00;96079.78;10516828;28;3079;-71
2023/01/21 23:37:59;;;;;;;;;;;;;;;-2.55;100.00;96083.75;10515519;28;2634;-70
2023/01/21 23:43:02;;;;;;;;;;;;;;;-2.50;100.00;96081.38;10525792;28;2578;-71
2023/01/21 23:48:05;;;;;;;;;;;;;;;-2.49;100.00;96072.47;10527881;28;2662;-71
2023/01/21 23:53:09;;;;;;;;;;;;;;;-2.41;100.00;96077.66;10525180;28;2668;-72
2023/01/21 23:58:12;;;;;;;;;;;;;;;-2.35;100.00;96076.09;10524298;28;2709;-71
